Time;durP1;ratioP1;P1;durP2;ratioP2;P2;SDS_P1;SDS_P2;PMS_P1;PMS_P2;Temp;Humidity;BMP_temperature;BMP_pressure;BME280_temperature;BME280_humidity;BME280_pressure;Samples;Min_cycle;Max_cycle;Signal;HPM_P1;HPM_P2
2021/11/29 00:01:09;;;;;;;97.47;8.97;;;0.70;99.90;;;;;;5009759;28;20202;-82
2021/11/29 00:03:36;;;;;;;88.77;8.43;;;0.60;99.90;;;;;;5005901;28;20219;-83
2021/11/29 00:06:03;;;;;;;33.47;7.47;;;0.70;99.90;;;;;;5013541;28;20245;-83
2021/11/29 00:08:30;;;;;;;84.47;8.30;;;0.70;99.90;;;;;;5001758;28;20215;-82
2021/11/29 00:10:57;;;;;;;56.73;6.97;;;0.70;99.90;;;;;;5019848;28;20691;-83
2021/11/29 00:13:25;;;;;;;117.53;11.07;;;0.70;99.90;;;;;;5010896;28;20212;-82
2021/11/29 00:15:51;;;;;;;121.20;10.23;;;0.70;99.90;;;;;;5005898;28;20678;-83
2021/11/29 00:18:18;;;;;;;113.50;10.50;;;0.70;99.90;;;;;;5000550;28;20218;-82
2021/11/29 00:20:46;;;;;;;45.37;7.40;;;0.70;99.90;;;;;;5008074;28;20523;-83
2021/11/29 00:23:14;;;;;;;36.93;7.80;;;0.70;99.90;;;;;;5029021;28;20558;-82
2021/11/29 00:25:42;;;;;;;109.60;10.27;;;0.70;99.90;;;;;;5003725;28;20333;-83
2021/11/29 00:28:09;;;;;;;99.93;9.57;;;0.70;99.90;;;;;;5026458;28;20700;-82
2021/11/29 00:30:38;;;;;;;110.17;10.07;;;0.70;99.90;;;;;;5026948;28;20249;-83
2021/11/29 00:33:06;;;;;;;76.83;8.53;;;0.70;99.90;;;;;;5009153;28;20803;-83
2021/11/29 00:35:32;;;;;;;74.07;7.67;;;0.70;99.90;;;;;;5025982;28;20235;-84
2021/11/29 00:37:59;;;;;;;81.67;9.13;;;0.70;99.90;;;;;;5005319;28;20216;-82
2021/11/29 00:40:26;;;;;;;86.77;9.03;;;0.70;99.90;;;;;;5017500;28;20803;-82
2021/11/29 00:42:53;;;;;;;80.47;9.30;;;0.60;99.90;;;;;;5022864;28;20194;-83
2021/11/29 00:45:19;;;;;;;152.63;11.00;;;0.60;99.90;;;;;;5008991;28;20226;-82
2021/11/29 00:47:47;;;;;;;20.20;6.67;;;0.50;99.90;;;;;;5028493;28;20217;-83
2021/11/29 00:50:15;;;;;;;55.77;8.27;;;0.50;99.90;;;;;;5005481;28;20218;-82
2021/11/29 00:52:43;;;;;;;62.73;7.43;;;0.60;99.90;;;;;;5025371;28;20317;-83
2021/11/29 00:55:10;;;;;;;41.13;6.80;;;0.70;99.90;;;;;;5002913;28;20906;-82
2021/11/29 00:57:37;;;;;;;25.80;6.37;;;0.60;99.90;;;;;;5007442;28;20210;-83
2021/11/29 01:00:06;;;;;;;24.73;6.77;;;0.60;99.90;;;;;;5024242;28;20768;-82
2021/11/29 01:02:33;;;;;;;42.33;7.47;;;0.70;99.90;;;;;;5030884;28;20821;-83
2021/11/29 01:05:01;;;;;;;28.30;7.07;;;0.70;99.90;;;;;;5021243;28;20344;-82
2021/11/29 01:07:28;;;;;;;40.97;7.37;;;0.70;99.90;;;;;;5011987;28;20202;-81
2021/11/29 01:09:55;;;;;;;57.40;11.47;;;0.70;99.90;;;;;;4999866;28;20210;-82
2021/11/29 01:12:21;;;;;;;45.83;7.23;;;0.70;99.90;;;;;;5004082;28;20891;-82
2021/11/29 01:14:48;;;;;;;62.63;8.90;;;0.70;99.90;;;;;;5022962;28;20212;-83
2021/11/29 01:17:15;;;;;;;41.23;8.03;;;0.80;99.90;;;;;;5026557;28;20229;-82
2021/11/29 01:19:42;;;;;;;64.20;8.63;;;0.80;99.90;;;;;;5006481;28;20758;-83
2021/11/29 01:22:10;;;;;;;85.17;7.77;;;0.70;99.90;;;;;;4999678;28;20267;-82
2021/11/29 01:24:36;;;;;;;40.97;6.27;;;0.60;99.90;;;;;;5012580;28;20684;-82
2021/11/29 01:27:03;;;;;;;46.27;6.10;;;0.50;99.90;;;;;;4995461;28;22530;-82
2021/11/29 01:29:30;;;;;;;63.13;7.47;;;0.50;99.90;;;;;;5009391;28;20243;-82
2021/11/29 01:31:57;;;;;;;107.93;10.03;;;0.50;99.90;;;;;;5005159;28;20227;-82
2021/11/29 01:34:23;;;;;;;103.87;8.70;;;0.40;99.90;;;;;;5018750;28;20217;-82
2021/11/29 01:36:50;;;;;;;118.03;8.17;;;0.30;99.90;;;;;;5021811;28;20233;-83
2021/11/29 01:39:18;;;;;;;109.03;8.03;;;0.30;99.90;;;;;;5034671;28;20221;-82
2021/11/29 01:41:46;;;;;;;77.03;7.23;;;0.20;99.90;;;;;;5000296;28;20199;-82
2021/11/29 01:44:13;;;;;;;102.97;10.50;;;0.20;99.90;;;;;;5017559;28;20306;-82
2021/11/29 01:46:40;;;;;;;76.50;8.70;;;0.20;99.90;;;;;;5024024;28;20222;-83
2021/11/29 01:49:07;;;;;;;62.03;7.30;;;0.20;99.90;;;;;;5024629;28;20222;-82
2021/11/29 01:51:34;;;;;;;123.33;9.27;;;0.20;99.90;;;;;;5023000;28;20221;-83
2021/11/29 01:54:01;;;;;;;48.83;7.17;;;0.20;99.90;;;;;;5017172;28;20563;-82
2021/11/29 01:56:29;;;;;;;31.87;6.87;;;0.20;99.90;;;;;;5013941;28;20226;-82
2021/11/29 01:58:55;;;;;;;17.13;5.83;;;0.20;99.90;;;;;;4995767;28;20706;-83
2021/11/29 02:01:26;;;;;;;26.67;6.67;;;0.30;99.90;;;;;;5008465;28;20213;-82
2021/11/29 02:03:56;;;;;;;53.83;7.43;;;0.30;99.90;;;;;;5008482;28;20212;-82
2021/11/29 02:06:24;;;;;;;75.73;7.60;;;0.30;99.90;;;;;;5012892;28;20230;-82
2021/11/29 02:08:51;;;;;;;44.80;8.17;;;0.30;99.90;;;;;;5001154;28;20614;-83
2021/11/29 02:11:18;;;;;;;58.97;7.53;;;0.20;99.90;;;;;;5012234;28;20218;-82
2021/11/29 02:13:46;;;;;;;88.93;9.17;;;0.30;99.90;;;;;;5015227;28;20207;-83
2021/11/29 02:16:13;;;;;;;61.07;7.77;;;0.30;99.90;;;;;;5000814;28;20954;-82
2021/11/29 02:18:40;;;;;;;95.50;9.50;;;0.20;99.90;;;;;;5031281;28;20215;-83
2021/11/29 02:21:11;;;;;;;72.33;8.97;;;0.20;99.90;;;;;;5010235;28;20678;-82
2021/11/29 02:23:41;;;;;;;49.17;8.20;;;0.20;99.90;;;;;;5000881;28;20226;-83
2021/11/29 02:26:08;;;;;;;61.57;8.30;;;0.20;99.90;;;;;;5002919;28;20332;-82
2021/11/29 02:28:36;;;;;;;66.97;8.40;;;0.20;99.90;;;;;;5017991;28;20216;-82
2021/11/29 02:31:07;;;;;;;19.23;6.70;;;0.20;99.90;;;;;;5000605;28;20282;-82
2021/11/29 02:33:34;;;;;;;42.60;7.40;;;0.30;99.90;;;;;;5017024;28;20218;-83
2021/11/29 02:36:01;;;;;;;16.53;5.93;;;0.30;99.90;;;;;;5007538;28;20216;-81
2021/11/29 02:38:29;;;;;;;19.47;6.23;;;0.20;99.90;;;;;;5007161;28;20219;-82
2021/11/29 02:40:56;;;;;;;21.13;6.37;;;0.20;99.90;;;;;;4995917;28;20293;-82
2021/11/29 02:43:23;;;;;;;32.63;6.97;;;0.20;99.90;;;;;;5024729;28;20203;-82
2021/11/29 02:45:49;;;;;;;25.63;6.83;;;0.20;99.90;;;;;;5016294;28;20238;-83
2021/11/29 02:48:16;;;;;;;20.10;6.03;;;0.30;99.90;;;;;;5007648;28;20207;-82
2021/11/29 02:50:43;;;;;;;13.57;6.40;;;0.30;99.90;;;;;;5004564;28;20209;-83
2021/11/29 02:53:12;;;;;;;21.20;6.20;;;0.40;99.90;;;;;;5006035;28;20225;-82
2021/11/29 02:55:41;;;;;;;18.77;6.63;;;0.40;99.90;;;;;;4995524;28;20221;-83
2021/11/29 02:58:08;;;;;;;10.47;5.97;;;0.40;99.90;;;;;;5004632;28;20840;-82
2021/11/29 03:00:35;;;;;;;8.70;5.77;;;0.30;99.90;;;;;;5016698;28;20204;-82
2021/11/29 03:03:07;;;;;;;10.87;5.73;;;0.30;99.90;;;;;;5005910;28;20197;-82
2021/11/29 03:05:34;;;;;;;10.47;6.10;;;0.30;99.90;;;;;;5034284;28;20298;-83
2021/11/29 03:08:01;;;;;;;7.30;5.73;;;0.30;99.90;;;;;;5021237;28;20198;-82
2021/11/29 03:10:29;;;;;;;24.73;6.37;;;0.30;99.90;;;;;;5007019;28;20210;-82
2021/11/29 03:12:57;;;;;;;10.93;5.47;;;0.30;99.90;;;;;;4995772;28;20225;-82
2021/11/29 03:15:24;;;;;;;8.40;5.80;;;0.30;99.90;;;;;;5025772;28;20716;-81
2021/11/29 03:17:51;;;;;;;14.27;6.00;;;0.30;99.90;;;;;;5002989;28;20675;-83
2021/11/29 03:20:18;;;;;;;18.23;5.50;;;0.30;99.90;;;;;;5006654;28;20575;-82
2021/11/29 03:22:46;;;;;;;11.83;5.47;;;0.30;99.90;;;;;;5021454;28;20665;-83
2021/11/29 03:25:13;;;;;;;10.93;5.60;;;0.30;99.90;;;;;;5006178;28;20235;-81
2021/11/29 03:27:41;;;;;;;8.97;5.57;;;0.30;99.90;;;;;;4999973;28;20220;-83
2021/11/29 03:30:11;;;;;;;11.33;5.70;;;0.40;99.90;;;;;;5006634;28;20194;-81
2021/11/29 03:32:38;;;;;;;11.77;5.77;;;0.40;99.90;;;;;;5006496;28;20221;-83
2021/11/29 03:35:07;;;;;;;12.83;5.60;;;0.40;99.90;;;;;;5023831;28;20275;-82
2021/11/29 03:37:34;;;;;;;10.60;6.33;;;0.40;99.90;;;;;;5023725;28;20203;-82
2021/11/29 03:40:01;;;;;;;8.53;5.60;;;0.40;99.90;;;;;;5003848;28;20333;-82
2021/11/29 03:42:27;;;;;;;13.40;5.77;;;0.50;99.90;;;;;;5014845;28;20205;-82
2021/11/29 03:44:55;;;;;;;8.37;5.80;;;0.50;99.90;;;;;;5004376;28;20234;-82
2021/11/29 03:47:23;;;;;;;11.00;5.63;;;0.50;99.90;;;;;;5021897;28;20750;-82
2021/11/29 03:49:50;;;;;;;8.57;5.50;;;0.50;99.90;;;;;;5002673;28;20238;-82
2021/11/29 03:52:17;;;;;;;9.20;6.13;;;0.50;99.90;;;;;;5024318;28;20202;-81
2021/11/29 03:54:44;;;;;;;11.67;6.13;;;0.50;99.90;;;;;;5021528;28;20672;-83
2021/11/29 03:57:11;;;;;;;10.13;5.97;;;0.60;99.90;;;;;;5005781;28;20233;-82
2021/11/29 03:59:37;;;;;;;12.10;6.53;;;0.60;99.90;;;;;;4999158;28;20213;-83
2021/11/29 04:02:04;;;;;;;7.80;5.33;;;0.60;99.90;;;;;;5017005;28;20708;-82
2021/11/29 04:04:32;;;;;;;10.17;6.80;;;0.60;99.90;;;;;;5015625;28;20710;-82
2021/11/29 04:06:59;;;;;;;10.53;6.37;;;0.60;99.90;;;;;;5020279;28;20579;-82
2021/11/29 04:09:26;;;;;;;11.90;7.07;;;0.60;99.90;;;;;;5024310;28;20195;-81
2021/11/29 04:11:53;;;;;;;11.83;6.80;;;0.60;99.90;;;;;;5003033;28;20242;-82
2021/11/29 04:14:19;;;;;;;9.77;5.93;;;0.50;99.90;;;;;;5016148;28;20603;-82
2021/11/29 04:16:46;;;;;;;10.30;6.53;;;0.50;99.90;;;;;;5013053;28;20232;-82
2021/11/29 04:19:13;;;;;;;9.20;5.77;;;0.60;99.90;;;;;;5004264;28;20216;-82
2021/11/29 04:21:41;;;;;;;8.30;5.67;;;0.60;99.90;;;;;;5025387;28;20321;-83
2021/11/29 04:24:08;;;;;;;9.30;6.27;;;0.60;99.90;;;;;;5007510;28;20368;-82
2021/11/29 04:26:35;;;;;;;8.37;5.77;;;0.60;99.90;;;;;;5023003;28;20236;-82
2021/11/29 04:29:07;;;;;;;7.17;5.07;;;0.70;99.90;;;;;;5020479;28;20213;-81
2021/11/29 04:31:33;;;;;;;7.57;4.73;;;0.60;99.90;;;;;;5033030;28;20209;-82
2021/11/29 04:34:00;;;;;;;6.43;4.77;;;0.60;99.90;;;;;;5002473;28;22375;-81
2021/11/29 04:36:27;;;;;;;8.03;5.10;;;0.60;99.90;;;;;;5013462;28;20217;-81
2021/11/29 04:38:55;;;;;;;8.73;5.00;;;0.60;99.90;;;;;;5005454;28;20269;-81
2021/11/29 04:41:21;;;;;;;7.37;4.93;;;0.60;99.90;;;;;;5008774;28;20641;-81
2021/11/29 04:43:48;;;;;;;7.90;5.20;;;0.70;99.90;;;;;;4995488;28;20214;-82
2021/11/29 04:46:15;;;;;;;8.93;5.87;;;0.70;99.90;;;;;;5024808;28;20228;-81
2021/11/29 04:48:41;;;;;;;9.57;6.33;;;0.70;99.90;;;;;;5005057;28;20202;-82
2021/11/29 04:51:08;;;;;;;7.17;5.07;;;0.70;99.90;;;;;;5006985;28;20240;-81
2021/11/29 04:53:35;;;;;;;9.73;6.17;;;0.70;99.90;;;;;;5007537;28;20715;-82
2021/11/29 04:56:04;;;;;;;8.63;5.60;;;0.60;99.90;;;;;;5006215;28;20514;-81
2021/11/29 04:58:31;;;;;;;9.13;6.03;;;0.70;99.90;;;;;;5026664;28;20567;-82
2021/11/29 05:00:57;;;;;;;9.60;6.07;;;0.70;99.90;;;;;;4985636;28;20856;-82
2021/11/29 05:03:24;;;;;;;8.17;5.83;;;0.70;99.90;;;;;;5004172;28;20192;-82
2021/11/29 05:05:51;;;;;;;9.37;5.50;;;0.70;99.90;;;;;;4993695;28;20229;-81
2021/11/29 05:08:18;;;;;;;13.50;6.73;;;0.70;99.90;;;;;;5010123;28;20682;-81
2021/11/29 05:10:45;;;;;;;9.73;6.27;;;0.60;99.90;;;;;;5007351;28;20201;-82
2021/11/29 05:13:13;;;;;;;16.07;6.53;;;0.60;99.90;;;;;;5026669;28;20785;-81
2021/11/29 05:15:40;;;;;;;11.07;6.27;;;0.60;99.90;;;;;;5001991;28;20320;-82
2021/11/29 05:18:07;;;;;;;9.33;6.00;;;0.60;99.90;;;;;;5024655;28;20314;-81
2021/11/29 05:20:34;;;;;;;9.93;6.47;;;0.60;99.90;;;;;;5003600;28;20210;-82
2021/11/29 05:23:00;;;;;;;15.40;6.23;;;0.60;99.90;;;;;;5012048;28;20210;-81
2021/11/29 05:25:28;;;;;;;15.40;6.83;;;0.60;99.90;;;;;;5007093;28;20613;-81
2021/11/29 05:27:55;;;;;;;25.10;6.47;;;0.60;99.90;;;;;;5001159;28;20496;-82
2021/11/29 05:30:23;;;;;;;11.20;6.20;;;0.60;99.90;;;;;;5007896;28;20199;-81
2021/11/29 05:32:51;;;;;;;17.60;6.43;;;0.60;99.90;;;;;;4995531;28;20904;-82
2021/11/29 05:35:17;;;;;;;28.40;7.00;;;0.60;99.90;;;;;;5024334;28;20219;-81
2021/11/29 05:37:44;;;;;;;15.73;7.30;;;0.60;99.90;;;;;;5005043;28;20865;-83
2021/11/29 05:40:12;;;;;;;19.87;7.03;;;0.60;99.90;;;;;;5036746;28;20575;-81
2021/11/29 05:42:40;;;;;;;27.17;7.03;;;0.60;99.90;;;;;;5024702;28;20202;-82
2021/11/29 05:45:08;;;;;;;17.03;6.10;;;0.60;99.90;;;;;;5002053;28;20727;-82
2021/11/29 05:47:36;;;;;;;10.23;6.40;;;0.60;99.90;;;;;;4995075;28;20558;-82
2021/11/29 05:50:03;;;;;;;26.13;6.33;;;0.60;99.90;;;;;;5024741;28;20209;-81
2021/11/29 05:52:30;;;;;;;13.73;6.30;;;0.60;99.90;;;;;;5013481;28;20217;-82
2021/11/29 05:54:57;;;;;;;15.93;6.53;;;0.60;99.90;;;;;;5022709;28;20203;-82
2021/11/29 05:57:23;;;;;;;20.60;6.27;;;0.60;99.90;;;;;;5024920;28;20206;-81
2021/11/29 05:59:50;;;;;;;25.90;7.50;;;0.60;99.90;;;;;;5026344;28;20818;-81
2021/11/29 06:02:17;;;;;;;9.83;6.40;;;0.60;99.90;;;;;;5001284;28;20217;-81
2021/11/29 06:04:45;;;;;;;17.07;7.80;;;0.60;99.90;;;;;;5015983;28;20282;-81
2021/11/29 06:07:11;;;;;;;21.03;7.47;;;0.60;99.90;;;;;;5008039;28;20690;-80
2021/11/29 06:09:38;;;;;;;20.90;8.00;;;0.60;99.90;;;;;;5021201;28;20207;-81
2021/11/29 06:12:06;;;;;;;15.53;7.57;;;0.60;99.90;;;;;;5006497;28;20346;-80
2021/11/29 06:14:33;;;;;;;15.03;7.83;;;0.60;99.90;;;;;;5024366;28;20217;-81
2021/11/29 06:17:00;;;;;;;19.53;7.93;;;0.70;99.90;;;;;;5010950;28;20762;-81
2021/11/29 06:19:26;;;;;;;14.03;7.77;;;0.60;99.90;;;;;;5020053;28;20691;-81
2021/11/29 06:21:54;;;;;;;22.43;8.27;;;0.70;99.90;;;;;;5001595;28;20426;-81
2021/11/29 06:24:21;;;;;;;23.57;8.63;;;0.70;99.90;;;;;;5010954;28;20751;-80
2021/11/29 06:26:48;;;;;;;16.70;8.27;;;0.70;99.90;;;;;;5000852;28;20220;-81
2021/11/29 06:29:14;;;;;;;14.33;7.80;;;0.70;99.90;;;;;;5012893;28;20222;-81
2021/11/29 06:31:42;;;;;;;17.23;8.40;;;0.70;99.90;;;;;;5004048;28;20203;-79
2021/11/29 06:34:08;;;;;;;27.60;9.27;;;0.70;99.90;;;;;;5014537;28;20224;-78
2021/11/29 06:36:35;;;;;;;19.57;9.27;;;0.70;99.90;;;;;;5020767;28;22267;-83
2021/11/29 06:39:03;;;;;;;15.00;8.77;;;0.70;99.90;;;;;;5032458;28;20222;-79
2021/11/29 06:41:30;;;;;;;18.53;9.30;;;0.70;99.90;;;;;;5000153;28;20254;-80
2021/11/29 06:43:57;;;;;;;18.70;10.53;;;0.80;99.90;;;;;;5034735;28;20206;-78
2021/11/29 06:46:24;;;;;;;16.50;8.53;;;0.80;99.90;;;;;;5008205;28;20952;-81
2021/11/29 06:48:51;;;;;;;18.80;9.20;;;0.80;99.90;;;;;;5007426;28;20218;-80
2021/11/29 06:51:17;;;;;;;19.97;9.97;;;0.80;99.90;;;;;;5008613;28;20308;-81
2021/11/29 06:53:44;;;;;;;19.40;9.50;;;0.90;99.90;;;;;;5021860;28;20304;-82
2021/11/29 06:56:12;;;;;;;16.00;9.33;;;0.90;99.90;;;;;;4998276;28;20238;-81
2021/11/29 06:58:39;;;;;;;25.83;10.03;;;0.90;99.90;;;;;;5020795;28;20200;-79
2021/11/29 07:01:06;;;;;;;20.07;9.87;;;0.90;99.90;;;;;;5020529;28;20231;-79
2021/11/29 07:03:34;;;;;;;16.07;9.60;;;0.90;99.90;;;;;;4996619;28;20330;-78
2021/11/29 07:06:01;;;;;;;15.77;9.30;;;0.90;99.90;;;;;;5010764;28;20284;-78
2021/11/29 07:08:28;;;;;;;18.47;9.43;;;1.00;99.90;;;;;;5013907;28;20205;-78
2021/11/29 07:10:57;;;;;;;15.27;8.83;;;1.00;99.90;;;;;;5024278;28;20264;-79
2021/11/29 07:13:25;;;;;;;17.03;9.00;;;1.00;99.90;;;;;;5012474;28;20807;-78
2021/11/29 07:15:52;;;;;;;18.03;9.60;;;1.00;99.90;;;;;;5018663;28;20234;-80
2021/11/29 07:18:18;;;;;;;17.83;10.13;;;1.00;99.90;;;;;;5002153;28;20202;-79
2021/11/29 07:20:46;;;;;;;17.13;9.07;;;1.00;99.90;;;;;;5018055;28;20689;-81
2021/11/29 07:23:12;;;;;;;19.40;9.90;;;1.00;99.90;;;;;;5016774;28;20213;-78
2021/11/29 07:25:39;;;;;;;18.57;9.83;;;1.00;99.90;;;;;;5006839;28;20222;-77
2021/11/29 07:28:06;;;;;;;17.17;9.70;;;1.00;99.90;;;;;;5022315;28;20679;-78
2021/11/29 07:30:34;;;;;;;16.30;9.23;;;1.00;99.90;;;;;;5021090;28;20201;-79
2021/11/29 07:33:01;;;;;;;19.83;10.67;;;1.00;99.90;;;;;;5003050;28;20234;-79
2021/11/29 07:35:31;;;;;;;16.60;8.87;;;1.00;99.90;;;;;;5009717;28;20566;-78
2021/11/29 07:37:58;;;;;;;22.83;10.83;;;1.10;99.90;;;;;;5015362;28;20207;-81
2021/11/29 07:40:28;;;;;;;17.47;10.40;;;1.10;99.90;;;;;;4998088;28;20317;-77
2021/11/29 07:42:56;;;;;;;15.60;9.20;;;1.10;99.90;;;;;;5026906;28;20209;-78
2021/11/29 07:45:22;;;;;;;22.67;10.47;;;1.20;99.90;;;;;;5003706;28;20231;-77
2021/11/29 07:47:50;;;;;;;22.50;10.10;;;1.20;99.90;;;;;;5019800;28;20214;-77
2021/11/29 07:50:18;;;;;;;20.90;10.57;;;1.20;99.90;;;;;;5019059;28;20827;-78
2021/11/29 07:52:47;;;;;;;22.17;11.13;;;1.20;99.90;;;;;;5005912;28;20220;-77
2021/11/29 07:55:17;;;;;;;20.80;10.10;;;1.20;99.90;;;;;;5025646;28;20318;-77
2021/11/29 07:57:44;;;;;;;22.67;10.93;;;1.20;99.90;;;;;;5021409;28;20842;-78
2021/11/29 08:00:17;;;;;;;22.53;11.20;;;1.20;99.90;;;;;;5015526;28;20208;-79
2021/11/29 08:02:44;;;;;;;27.67;11.93;;;1.20;99.90;;;;;;5005862;28;20257;-78
2021/11/29 08:05:12;;;;;;;25.43;11.53;;;1.20;99.90;;;;;;5018102;28;20230;-79
2021/11/29 08:07:39;;;;;;;22.47;10.77;;;1.30;99.90;;;;;;5013008;28;20541;-78
2021/11/29 08:10:06;;;;;;;26.67;11.17;;;1.30;99.90;;;;;;4996527;28;20203;-79
2021/11/29 08:12:33;;;;;;;31.10;12.83;;;1.30;99.90;;;;;;5027200;28;20225;-78
2021/11/29 08:15:01;;;;;;;24.00;10.90;;;1.30;99.90;;;;;;5013276;28;20230;-78
2021/11/29 08:17:28;;;;;;;28.10;12.23;;;1.30;99.90;;;;;;5021863;28;20217;-79
2021/11/29 08:19:54;;;;;;;22.57;11.07;;;1.30;99.90;;;;;;5014944;28;22250;-78
2021/11/29 08:22:23;;;;;;;31.27;11.57;;;1.40;99.90;;;;;;5009736;28;20211;-79
2021/11/29 08:24:49;;;;;;;22.83;11.47;;;1.40;99.90;;;;;;5020852;28;20207;-76
2021/11/29 08:27:16;;;;;;;20.70;11.20;;;1.40;99.90;;;;;;5007687;28;20220;-77
2021/11/29 08:29:43;;;;;;;25.33;11.60;;;1.40;99.90;;;;;;5020375;28;20370;-77
2021/11/29 08:32:11;;;;;;;21.40;11.80;;;1.40;99.90;;;;;;5024260;28;20195;-78
2021/11/29 08:34:39;;;;;;;22.70;11.80;;;1.50;99.90;;;;;;5014184;28;20219;-79
2021/11/29 08:37:06;;;;;;;23.03;12.40;;;1.50;99.90;;;;;;5011255;28;20687;-77
2021/11/29 08:39:35;;;;;;;23.33;11.87;;;1.50;99.90;;;;;;5014645;28;20211;-79
2021/11/29 08:42:01;;;;;;;23.07;11.90;;;1.50;99.90;;;;;;5026407;28;20212;-77
2021/11/29 08:44:28;;;;;;;23.00;12.47;;;1.60;99.90;;;;;;5000251;28;20207;-79
2021/11/29 08:46:55;;;;;;;26.87;12.10;;;1.60;99.90;;;;;;5022678;28;20745;-81
2021/11/29 08:49:24;;;;;;;25.60;11.83;;;1.60;99.90;;;;;;5006714;28;20203;-82
2021/11/29 08:51:51;;;;;;;24.43;12.23;;;1.60;99.90;;;;;;4998307;28;20234;-80
2021/11/29 08:54:18;;;;;;;23.87;12.43;;;1.70;99.90;;;;;;5015212;28;20722;-80
2021/11/29 08:56:47;;;;;;;25.13;12.00;;;1.70;99.90;;;;;;4995900;28;20406;-79
2021/11/29 08:59:14;;;;;;;25.63;12.23;;;1.70;99.90;;;;;;5018751;28;20214;-78
2021/11/29 09:01:41;;;;;;;25.37;13.13;;;1.70;99.90;;;;;;5021969;28;20337;-78
2021/11/29 09:04:07;;;;;;;23.50;11.87;;;1.70;99.90;;;;;;5027928;28;20220;-78
2021/11/29 09:06:35;;;;;;;22.63;11.83;;;1.70;99.90;;;;;;5014942;28;20344;-82
2021/11/29 09:09:02;;;;;;;25.20;12.17;;;1.80;99.90;;;;;;5018164;28;20212;-79
2021/11/29 09:11:29;;;;;;;21.73;12.37;;;1.80;99.90;;;;;;5018638;28;20272;-79
2021/11/29 09:13:57;;;;;;;25.30;11.57;;;1.80;99.90;;;;;;5021379;28;20410;-78
2021/11/29 09:16:25;;;;;;;21.23;12.73;;;1.90;99.90;;;;;;4998001;28;20222;-82
2021/11/29 09:18:52;;;;;;;26.33;12.60;;;1.90;99.90;;;;;;5024177;28;20213;-79
2021/11/29 09:21:22;;;;;;;20.90;11.67;;;2.00;99.90;;;;;;5018381;28;20668;-80
2021/11/29 09:23:50;;;;;;;24.93;12.30;;;2.00;99.90;;;;;;5021532;28;20708;-78
2021/11/29 09:26:17;;;;;;;22.10;12.33;;;2.10;99.90;;;;;;4996991;28;20236;-78
2021/11/29 09:28:43;;;;;;;22.93;12.47;;;2.10;99.90;;;;;;5006888;28;20208;-78
2021/11/29 09:31:12;;;;;;;23.93;12.27;;;2.20;99.90;;;;;;5008809;28;20214;-78
2021/11/29 09:33:40;;;;;;;24.07;12.60;;;2.30;99.90;;;;;;5020442;28;20199;-79
2021/11/29 09:36:07;;;;;;;23.27;12.23;;;2.40;99.90;;;;;;5024786;28;20227;-80
2021/11/29 09:38:35;;;;;;;22.10;11.97;;;2.40;99.90;;;;;;5020376;28;20208;-84
2021/11/29 09:41:02;;;;;;;23.93;11.77;;;2.50;99.90;;;;;;5031137;28;20212;-78
2021/11/29 09:43:28;;;;;;;20.40;10.70;;;2.50;99.90;;;;;;5031374;28;20203;-80
2021/11/29 09:45:55;;;;;;;18.40;10.37;;;2.60;99.90;;;;;;5023575;28;20230;-78
2021/11/29 09:48:24;;;;;;;18.57;10.83;;;2.70;99.90;;;;;;5007745;28;20581;-80
2021/11/29 09:50:54;;;;;;;21.37;11.33;;;2.80;99.90;;;;;;4996256;28;20204;-80
2021/11/29 09:53:23;;;;;;;19.20;10.93;;;2.80;99.90;;;;;;5017770;28;20211;-82
2021/11/29 09:55:50;;;;;;;19.57;10.13;;;2.80;99.90;;;;;;5003761;28;20433;-78
2021/11/29 09:58:18;;;;;;;16.93;10.27;;;2.90;99.90;;;;;;5021772;28;20203;-78
2021/11/29 10:00:48;;;;;;;17.40;10.10;;;2.90;99.90;;;;;;5018711;28;20192;-79
2021/11/29 10:03:15;;;;;;;15.17;10.10;;;3.00;99.90;;;;;;5001184;28;20259;-78
2021/11/29 10:05:43;;;;;;;14.97;9.13;;;3.00;99.90;;;;;;5003422;28;20216;-78
2021/11/29 10:08:21;;;;;;;13.07;8.33;;;3.10;99.90;;;;;;5019813;28;20212;-76
2021/11/29 10:10:49;;;;;;;13.63;9.33;;;3.10;99.90;;;;;;4980972;28;20221;-76
2021/11/29 10:13:16;;;;;;;11.97;8.53;;;3.10;99.90;;;;;;5032659;28;20210;-77
2021/11/29 10:15:44;;;;;;;11.77;8.47;;;3.20;99.90;;;;;;5017679;28;20767;-79
2021/11/29 10:18:13;;;;;;;8.50;6.70;;;3.20;99.90;;;;;;5024975;28;20212;-77
2021/11/29 10:20:52;;;;;;;9.50;6.50;;;3.20;99.90;;;;;;4991451;28;20280;-82
2021/11/29 10:23:32;;;;;;;9.63;6.67;;;3.20;99.90;;;;;;5022490;28;20305;-79
2021/11/29 10:26:00;;;;;;;8.83;6.17;;;3.30;99.90;;;;;;5000414;28;20243;-79
2021/11/29 10:28:30;;;;;;;8.30;5.83;;;3.30;99.90;;;;;;5016923;28;20215;-80
2021/11/29 10:31:16;;;;;;;7.50;6.07;;;3.30;99.90;;;;;;5006070;28;20211;-79
2021/11/29 10:33:57;;;;;;;6.60;5.13;;;3.30;99.90;;;;;;4988492;28;20254;-80
2021/11/29 10:36:28;;;;;;;6.97;5.30;;;3.30;99.90;;;;;;5018507;28;20227;-81
2021/11/29 10:38:58;;;;;;;7.67;6.17;;;3.40;99.90;;;;;;5018390;28;21115;-80
2021/11/29 10:41:33;;;;;;;7.77;5.30;;;3.40;99.90;;;;;;5011417;28;20754;-81
2021/11/29 10:44:02;;;;;;;5.90;5.20;;;3.50;99.90;;;;;;5012164;28;20208;-79
2021/11/29 10:46:31;;;;;;;7.27;4.63;;;3.50;99.90;;;;;;5012889;28;20326;-80
2021/11/29 10:49:01;;;;;;;6.83;4.37;;;3.50;99.90;;;;;;5004887;28;20202;-80
2021/11/29 10:51:30;;;;;;;4.30;3.80;;;3.50;99.90;;;;;;5019367;28;20367;-81
2021/11/29 10:53:59;;;;;;;5.17;3.80;;;3.50;99.90;;;;;;5021105;28;20203;-81
2021/11/29 10:56:28;;;;;;;4.37;3.60;;;3.60;99.90;;;;;;4998215;28;20731;-80
2021/11/29 10:58:58;;;;;;;3.50;2.60;;;3.60;99.90;;;;;;5015728;28;20205;-77
2021/11/29 11:01:38;;;;;;;2.70;2.50;;;3.60;99.90;;;;;;5018648;28;20282;-80
2021/11/29 11:04:07;;;;;;;2.83;2.60;;;3.60;99.90;;;;;;5031650;28;20195;-76
2021/11/29 11:06:37;;;;;;;2.33;2.10;;;3.60;99.90;;;;;;5002483;28;20223;-80
2021/11/29 11:09:12;;;;;;;4.13;3.00;;;3.60;99.90;;;;;;5006329;28;20221;-78
2021/11/29 11:11:42;;;;;;;7.40;3.20;;;3.60;99.90;;;;;;5021284;28;20249;-79
2021/11/29 11:14:12;;;;;;;3.20;2.90;;;3.70;99.90;;;;;;5004068;28;20199;-78
2021/11/29 11:16:53;;;;;;;2.97;2.67;;;3.70;99.90;;;;;;5021733;28;20212;-78
2021/11/29 11:19:26;;;;;;;3.63;3.10;;;3.70;99.90;;;;;;5024736;28;20225;-81
2021/11/29 11:21:56;;;;;;;2.77;2.57;;;3.80;99.90;;;;;;5019196;28;20200;-78
2021/11/29 11:24:25;;;;;;;2.97;2.63;;;3.80;99.90;;;;;;5028663;28;20680;-80
2021/11/29 11:26:55;;;;;;;4.17;2.20;;;3.90;99.90;;;;;;5024233;28;20468;-79
2021/11/29 11:29:41;;;;;;;3.50;3.17;;;3.90;99.90;;;;;;5027367;28;20289;-81
2021/11/29 11:32:10;;;;;;;2.70;2.50;;;3.90;99.90;;;;;;5020030;28;20727;-77
2021/11/29 11:34:38;;;;;;;4.27;3.70;;;3.90;99.90;;;;;;5014137;28;20204;-82
2021/11/29 11:37:06;;;;;;;3.70;3.40;;;3.90;99.90;;;;;;5015177;28;20607;-80
2021/11/29 11:39:33;;;;;;;4.07;3.43;;;3.90;99.90;;;;;;5022846;28;20193;-79
2021/11/29 11:42:01;;;;;;;4.63;3.37;;;3.90;99.90;;;;;;5035189;28;20203;-79
2021/11/29 11:44:29;;;;;;;5.23;3.63;;;3.90;99.90;;;;;;5024540;28;20212;-79
2021/11/29 11:46:57;;;;;;;3.73;3.40;;;3.90;99.90;;;;;;5015046;28;20383;-79
2021/11/29 11:49:24;;;;;;;4.60;4.20;;;3.90;99.90;;;;;;5025474;28;20208;-78
2021/11/29 11:51:51;;;;;;;5.13;4.17;;;3.90;99.90;;;;;;5008945;28;20200;-78
2021/11/29 11:54:19;;;;;;;6.20;4.10;;;3.90;99.90;;;;;;5010551;28;20208;-78
2021/11/29 11:56:46;;;;;;;5.80;4.67;;;3.90;99.90;;;;;;5020992;28;21660;-79
2021/11/29 11:59:14;;;;;;;4.40;4.00;;;3.90;99.90;;;;;;5017300;28;20294;-78
2021/11/29 12:01:44;;;;;;;5.73;4.47;;;3.90;99.90;;;;;;5027712;28;20824;-79
2021/11/29 12:04:11;;;;;;;6.13;4.77;;;4.00;99.90;;;;;;5011084;28;20208;-78
2021/11/29 12:06:40;;;;;;;5.83;5.13;;;4.00;99.90;;;;;;5006398;28;20266;-78
2021/11/29 12:09:08;;;;;;;5.47;4.97;;;4.00;99.90;;;;;;5009354;28;20629;-79
2021/11/29 12:11:42;;;;;;;5.80;5.20;;;4.10;99.90;;;;;;5008422;28;20656;-78
2021/11/29 12:14:27;;;;;;;5.53;4.90;;;4.00;99.90;;;;;;5020279;28;20196;-77
2021/11/29 12:16:55;;;;;;;7.50;5.40;;;4.00;99.90;;;;;;5022048;28;20308;-77
2021/11/29 12:19:38;;;;;;;5.70;4.70;;;4.00;99.90;;;;;;5020998;28;20202;-76
2021/11/29 12:22:35;;;;;;;6.67;5.30;;;4.10;99.90;;;;;;5027267;28;20612;-76
2021/11/29 12:25:22;;;;;;;7.10;5.40;;;4.10;99.90;;;;;;5017361;28;20868;-76
2021/11/29 12:27:52;;;;;;;8.10;4.90;;;4.20;99.90;;;;;;5021098;28;20781;-80
2021/11/29 12:30:32;;;;;;;6.53;5.27;;;4.20;99.90;;;;;;5026133;28;20236;-76
2021/11/29 12:33:02;;;;;;;5.27;4.77;;;4.20;99.90;;;;;;5021212;28;20739;-78
2021/11/29 12:35:35;;;;;;;6.60;5.17;;;4.30;99.90;;;;;;4992560;28;20266;-81
2021/11/29 12:38:07;;;;;;;6.63;5.37;;;4.30;99.90;;;;;;5023138;28;20204;-78
2021/11/29 12:40:47;;;;;;;5.97;4.90;;;4.40;99.90;;;;;;5011111;28;20208;-77
2021/11/29 12:43:34;;;;;;;6.37;4.30;;;4.50;99.90;;;;;;5036993;28;20211;-77
2021/11/29 12:46:22;;;;;;;6.90;4.83;;;4.50;99.90;;;;;;5020761;28;20302;-77
2021/11/29 12:48:50;;;;;;;5.23;4.73;;;4.60;99.90;;;;;;5040841;28;20377;-79
2021/11/29 12:51:41;;;;;;;8.37;4.70;;;4.60;99.90;;;;;;5024233;28;20201;-78
2021/11/29 12:54:37;;;;;;;4.77;4.37;;;4.70;99.90;;;;;;5026918;28;20192;-78